sensor_id;sensor_type;location;lat;lon;timestamp;P1;durP1;ratioP1;P2;durP2;ratioP2
6215;SDS011;3141;49.234;9.326;2022-12-07T00:00:37;3.37;;;1.27;;
6215;SDS011;3141;49.234;9.326;2022-12-07T00:01:21;3.90;;;2.17;;
6215;SDS011;3141;49.234;9.326;2022-12-07T00:02:05;4.47;;;2.75;;
6215;SDS011;3141;49.234;9.326;2022-12-07T00:02:48;1.93;;;1.73;;
6215;SDS011;3141;49.234;9.326;2022-12-07T00:03:30;6.23;;;3.17;;
6215;SDS011;3141;49.234;9.326;2022-12-07T00:04:13;9.30;;;3.00;;
6215;SDS011;3141;49.234;9.326;2022-12-07T00:04:57;13.15;;;3.85;;
6215;SDS011;3141;49.234;9.326;2022-12-07T00:05:39;4.10;;;3.70;;
6215;SDS011;3141;49.234;9.326;2022-12-07T00:06:21;6.60;;;4.40;;
6215;SDS011;3141;49.234;9.326;2022-12-07T00:07:04;3.37;;;2.33;;
6215;SDS011;3141;49.234;9.326;2022-12-07T00:07:46;8.67;;;2.60;;
6215;SDS011;3141;49.234;9.326;2022-12-07T00:08:29;1.87;;;1.70;;
6215;SDS011;3141;49.234;9.326;2022-12-07T00:09:13;8.30;;;2.45;;
6215;SDS011;3141;49.234;9.326;2022-12-07T00:09:57;6.60;;;3.50;;
6215;SDS011;3141;49.234;9.326;2022-12-07T00:10:39;7.93;;;3.50;;
6215;SDS011;3141;49.234;9.326;2022-12-07T00:11:22;2.77;;;2.47;;
6215;SDS011;3141;49.234;9.326;2022-12-07T00:12:04;10.53;;;3.87;;
6215;SDS011;3141;49.234;9.326;2022-12-07T00:12:47;8.00;;;2.43;;
6215;SDS011;3141;49.234;9.326;2022-12-07T00:13:31;3.40;;;2.97;;
6215;SDS011;3141;49.234;9.326;2022-12-07T00:14:14;7.20;;;3.17;;
6215;SDS011;3141;49.234;9.326;2022-12-07T00:14:57;7.15;;;5.57;;
6215;SDS011;3141;49.234;9.326;2022-12-07T00:15:40;11.70;;;3.37;;
6215;SDS011;3141;49.234;9.326;2022-12-07T00:16:23;2.43;;;2.33;;
6215;SDS011;3141;49.234;9.326;2022-12-07T00:17:07;2.00;;;1.90;;
6215;SDS011;3141;49.234;9.326;2022-12-07T00:17:49;17.17;;;4.47;;
6215;SDS011;3141;49.234;9.326;2022-12-07T00:18:32;2.10;;;1.90;;
6215;SDS011;3141;49.234;9.326;2022-12-07T00:19:14;1.80;;;1.70;;
6215;SDS011;3141;49.234;9.326;2022-12-07T00:19:57;5.30;;;2.27;;
6215;SDS011;3141;49.234;9.326;2022-12-07T00:20:39;2.27;;;2.13;;
6215;SDS011;3141;49.234;9.326;2022-12-07T00:21:22;2.70;;;2.00;;
6215;SDS011;3141;49.234;9.326;2022-12-07T00:22:07;2.28;;;2.08;;
6215;SDS011;3141;49.234;9.326;2022-12-07T00:22:49;3.67;;;3.23;;
6215;SDS011;3141;49.234;9.326;2022-12-07T00:23:32;1.93;;;1.83;;
6215;SDS011;3141;49.234;9.326;2022-12-07T00:24:15;2.40;;;2.22;;
6215;SDS011;3141;49.234;9.326;2022-12-07T00:24:57;1.10;;;1.10;;
6215;SDS011;3141;49.234;9.326;2022-12-07T00:25:39;1.83;;;1.73;;
6215;SDS011;3141;49.234;9.326;2022-12-07T00:26:23;1.07;;;1.07;;
6215;SDS011;3141;49.234;9.326;2022-12-07T00:27:07;1.60;;;1.55;;
6215;SDS011;3141;49.234;9.326;2022-12-07T00:27:49;0.67;;;0.67;;
6215;SDS011;3141;49.234;9.326;2022-12-07T00:28:32;1.23;;;1.23;;
6215;SDS011;3141;49.234;9.326;2022-12-07T00:29:17;5.47;;;4.05;;
6215;SDS011;3141;49.234;9.326;2022-12-07T00:30:01;2.25;;;2.08;;
6215;SDS011;3141;49.234;9.326;2022-12-07T00:30:43;2.00;;;1.90;;
6215;SDS011;3141;49.234;9.326;2022-12-07T00:31:26;2.67;;;1.90;;
6215;SDS011;3141;49.234;9.326;2022-12-07T00:32:10;7.47;;;1.77;;
6215;SDS011;3141;49.234;9.326;2022-12-07T00:32:52;1.33;;;1.30;;
6215;SDS011;3141;49.234;9.326;2022-12-07T00:33:35;1.30;;;1.20;;
6215;SDS011;3141;49.234;9.326;2022-12-07T00:34:18;1.63;;;1.55;;
6215;SDS011;3141;49.234;9.326;2022-12-07T00:35:02;3.80;;;1.30;;
6215;SDS011;3141;49.234;9.326;2022-12-07T00:35:45;1.97;;;1.87;;
6215;SDS011;3141;49.234;9.326;2022-12-07T00:36:27;2.10;;;1.63;;
6215;SDS011;3141;49.234;9.326;2022-12-07T00:37:09;1.63;;;1.53;;
6215;SDS011;3141;49.234;9.326;2022-12-07T00:37:52;1.10;;;1.10;;
6215;SDS011;3141;49.234;9.326;2022-12-07T00:38:35;2.43;;;1.17;;
6215;SDS011;3141;49.234;9.326;2022-12-07T00:39:18;1.10;;;1.10;;
6215;SDS011;3141;49.234;9.326;2022-12-07T00:40:01;1.67;;;1.57;;
6215;SDS011;3141;49.234;9.326;2022-12-07T00:40:43;0.63;;;0.63;;
6215;SDS011;3141;49.234;9.326;2022-12-07T00:41:26;1.27;;;1.27;;
6215;SDS011;3141;49.234;9.326;2022-12-07T00:42:10;2.85;;;2.13;;
6215;SDS011;3141;49.234;9.326;2022-12-07T00:42:52;4.07;;;2.23;;
6215;SDS011;3141;49.234;9.326;2022-12-07T00:43:34;1.60;;;1.60;;
6215;SDS011;3141;49.234;9.326;2022-12-07T00:44:17;5.37;;;1.93;;
6215;SDS011;3141;49.234;9.326;2022-12-07T00:44:59;4.73;;;2.00;;
6215;SDS011;3141;49.234;9.326;2022-12-07T00:45:41;3.03;;;2.50;;
6215;SDS011;3141;49.234;9.326;2022-12-07T00:46:24;1.30;;;1.27;;
6215;SDS011;3141;49.234;9.326;2022-12-07T00:47:06;1.45;;;1.38;;
6215;SDS011;3141;49.234;9.326;2022-12-07T00:47:49;5.63;;;2.73;;
6215;SDS011;3141;49.234;9.326;2022-12-07T00:48:31;13.67;;;2.57;;
6215;SDS011;3141;49.234;9.326;2022-12-07T00:49:14;1.90;;;1.80;;
6215;SDS011;3141;49.234;9.326;2022-12-07T00:49:56;3.40;;;2.57;;
6215;SDS011;3141;49.234;9.326;2022-12-07T00:50:38;1.60;;;1.50;;
6215;SDS011;3141;49.234;9.326;2022-12-07T00:51:22;1.80;;;1.07;;
6215;SDS011;3141;49.234;9.326;2022-12-07T00:52:05;3.20;;;2.95;;
6215;SDS011;3141;49.234;9.326;2022-12-07T00:52:47;1.07;;;1.07;;
6215;SDS011;3141;49.234;9.326;2022-12-07T00:53:30;3.67;;;1.43;;
6215;SDS011;3141;49.234;9.326;2022-12-07T00:54:13;0.95;;;0.95;;
6215;SDS011;3141;49.234;9.326;2022-12-07T00:54:55;1.00;;;1.00;;
6215;SDS011;3141;49.234;9.326;2022-12-07T00:55:37;1.93;;;1.43;;
6215;SDS011;3141;49.234;9.326;2022-12-07T00:57:03;2.03;;;1.92;;
6215;SDS011;3141;49.234;9.326;2022-12-07T00:57:46;2.23;;;2.13;;
6215;SDS011;3141;49.234;9.326;2022-12-07T00:58:28;2.13;;;1.90;;
6215;SDS011;3141;49.234;9.326;2022-12-07T00:59:12;0.87;;;0.87;;
6215;SDS011;3141;49.234;9.326;2022-12-07T00:59:56;0.95;;;0.80;;
6215;SDS011;3141;49.234;9.326;2022-12-07T01:00:40;1.17;;;1.17;;
6215;SDS011;3141;49.234;9.326;2022-12-07T01:01:25;2.42;;;1.65;;
6215;SDS011;3141;49.234;9.326;2022-12-07T01:02:09;1.10;;;1.10;;
6215;SDS011;3141;49.234;9.326;2022-12-07T01:02:51;0.37;;;0.37;;
6215;SDS011;3141;49.234;9.326;2022-12-07T01:03:34;0.60;;;0.60;;
6215;SDS011;3141;49.234;9.326;2022-12-07T01:04:17;1.30;;;0.53;;
6215;SDS011;3141;49.234;9.326;2022-12-07T01:04:59;0.97;;;0.97;;
6215;SDS011;3141;49.234;9.326;2022-12-07T01:05:51;0.70;;;0.70;;
6215;SDS011;3141;49.234;9.326;2022-12-07T01:06:35;1.45;;;1.45;;
6215;SDS011;3141;49.234;9.326;2022-12-07T01:07:17;0.80;;;0.70;;
6215;SDS011;3141;49.234;9.326;2022-12-07T01:07:59;0.77;;;0.73;;
6215;SDS011;3141;49.234;9.326;2022-12-07T01:08:42;0.50;;;0.50;;
6215;SDS011;3141;49.234;9.326;2022-12-07T01:09:25;0.90;;;0.87;;
6215;SDS011;3141;49.234;9.326;2022-12-07T01:10:07;0.50;;;0.50;;
6215;SDS011;3141;49.234;9.326;2022-12-07T01:10:56;1.03;;;0.93;;
6215;SDS011;3141;49.234;9.326;2022-12-07T01:11:43;0.45;;;0.45;;
6215;SDS011;3141;49.234;9.326;2022-12-07T01:12:26;0.30;;;0.30;;
6215;SDS011;3141;49.234;9.326;2022-12-07T01:13:08;0.70;;;0.70;;
6215;SDS011;3141;49.234;9.326;2022-12-07T01:13:51;5.10;;;1.77;;
6215;SDS011;3141;49.234;9.326;2022-12-07T01:14:35;1.63;;;1.52;;
6215;SDS011;3141;49.234;9.326;2022-12-07T01:15:17;0.63;;;0.63;;
6215;SDS011;3141;49.234;9.326;2022-12-07T01:16:00;0.70;;;0.70;;
6215;SDS011;3141;49.234;9.326;2022-12-07T01:16:44;2.35;;;1.65;;
6215;SDS011;3141;49.234;9.326;2022-12-07T01:17:28;3.37;;;2.43;;
6215;SDS011;3141;49.234;9.326;2022-12-07T01:18:10;1.63;;;1.52;;
6215;SDS011;3141;49.234;9.326;2022-12-07T01:18:53;2.37;;;1.43;;
6215;SDS011;3141;49.234;9.326;2022-12-07T01:19:37;7.30;;;2.30;;
6215;SDS011;3141;49.234;9.326;2022-12-07T01:20:20;2.63;;;2.43;;
6215;SDS011;3141;49.234;9.326;2022-12-07T01:21:03;15.80;;;2.33;;
6215;SDS011;3141;49.234;9.326;2022-12-07T01:21:51;3.25;;;2.97;;
6215;SDS011;3141;49.234;9.326;2022-12-07T01:22:40;3.50;;;1.73;;
6215;SDS011;3141;49.234;9.326;2022-12-07T01:23:23;0.40;;;0.40;;
6215;SDS011;3141;49.234;9.326;2022-12-07T01:24:06;1.33;;;0.47;;
6215;SDS011;3141;49.234;9.326;2022-12-07T01:24:51;2.83;;;1.35;;
6215;SDS011;3141;49.234;9.326;2022-12-07T01:25:33;0.93;;;0.93;;
6215;SDS011;3141;49.234;9.326;2022-12-07T01:26:17;1.53;;;1.43;;
6215;SDS011;3141;49.234;9.326;2022-12-07T01:27:00;1.10;;;1.10;;
6215;SDS011;3141;49.234;9.326;2022-12-07T01:27:43;2.87;;;1.80;;
6215;SDS011;3141;49.234;9.326;2022-12-07T01:28:25;2.27;;;1.63;;
6215;SDS011;3141;49.234;9.326;2022-12-07T01:29:08;0.40;;;0.40;;
6215;SDS011;3141;49.234;9.326;2022-12-07T01:29:51;0.70;;;0.70;;
6215;SDS011;3141;49.234;9.326;2022-12-07T01:30:33;0.90;;;0.90;;
6215;SDS011;3141;49.234;9.326;2022-12-07T01:31:16;0.83;;;0.80;;
6215;SDS011;3141;49.234;9.326;2022-12-07T01:32:00;0.30;;;0.30;;
6215;SDS011;3141;49.234;9.326;2022-12-07T01:32:42;2.43;;;0.80;;
6215;SDS011;3141;49.234;9.326;2022-12-07T01:33:26;0.40;;;0.40;;
6215;SDS011;3141;49.234;9.326;2022-12-07T01:34:13;3.97;;;1.23;;
6215;SDS011;3141;49.234;9.326;2022-12-07T01:34:55;0.80;;;0.80;;
6215;SDS011;3141;49.234;9.326;2022-12-07T01:35:38;1.17;;;1.17;;
6215;SDS011;3141;49.234;9.326;2022-12-07T01:36:21;2.03;;;1.93;;
6215;SDS011;3141;49.234;9.326;2022-12-07T01:37:05;0.73;;;0.73;;
6215;SDS011;3141;49.234;9.326;2022-12-07T01:37:47;2.10;;;1.17;;
6215;SDS011;3141;49.234;9.326;2022-12-07T01:38:30;1.10;;;1.07;;
6215;SDS011;3141;49.234;9.326;2022-12-07T01:39:14;4.78;;;2.08;;
6215;SDS011;3141;49.234;9.326;2022-12-07T01:39:56;1.57;;;1.10;;
6215;SDS011;3141;49.234;9.326;2022-12-07T01:40:38;1.40;;;1.23;;
6215;SDS011;3141;49.234;9.326;2022-12-07T01:41:20;1.80;;;1.70;;
6215;SDS011;3141;49.234;9.326;2022-12-07T01:42:03;0.90;;;0.87;;
6215;SDS011;3141;49.234;9.326;2022-12-07T01:42:45;0.93;;;0.90;;
6215;SDS011;3141;49.234;9.326;2022-12-07T01:43:28;1.43;;;1.03;;
6215;SDS011;3141;49.234;9.326;2022-12-07T01:46:00;0.80;;;0.80;;
6215;SDS011;3141;49.234;9.326;2022-12-07T01:46:44;1.10;;;1.03;;
6215;SDS011;3141;49.234;9.326;2022-12-07T01:47:30;0.52;;;0.52;;
6215;SDS011;3141;49.234;9.326;2022-12-07T01:48:14;2.13;;;1.20;;
6215;SDS011;3141;49.234;9.326;2022-12-07T01:49:00;5.30;;;1.23;;
6215;SDS011;3141;49.234;9.326;2022-12-07T01:49:45;1.35;;;1.25;;
6215;SDS011;3141;49.234;9.326;2022-12-07T01:50:30;3.55;;;0.80;;
6215;SDS011;3141;49.234;9.326;2022-12-07T01:51:15;3.10;;;1.45;;
6215;SDS011;3141;49.234;9.326;2022-12-07T01:52:00;1.90;;;1.57;;
6215;SDS011;3141;49.234;9.326;2022-12-07T01:52:49;1.15;;;1.10;;
6215;SDS011;3141;49.234;9.326;2022-12-07T01:53:36;1.65;;;0.82;;
6215;SDS011;3141;49.234;9.326;2022-12-07T01:54:21;0.40;;;0.40;;
6215;SDS011;3141;49.234;9.326;2022-12-07T01:55:06;1.37;;;0.57;;
6215;SDS011;3141;49.234;9.326;2022-12-07T01:55:52;1.05;;;0.63;;
6215;SDS011;3141;49.234;9.326;2022-12-07T01:56:35;1.25;;;1.25;;
6215;SDS011;3141;49.234;9.326;2022-12-07T01:57:20;3.47;;;2.33;;
6215;SDS011;3141;49.234;9.326;2022-12-07T01:58:03;1.48;;;1.33;;
6215;SDS011;3141;49.234;9.326;2022-12-07T01:58:45;1.60;;;1.50;;
6215;SDS011;3141;49.234;9.326;2022-12-07T01:59:29;0.90;;;0.90;;
6215;SDS011;3141;49.234;9.326;2022-12-07T02:00:12;1.00;;;1.00;;
6215;SDS011;3141;49.234;9.326;2022-12-07T02:00:54;0.93;;;0.93;;
6215;SDS011;3141;49.234;9.326;2022-12-07T02:01:37;8.10;;;1.60;;
6215;SDS011;3141;49.234;9.326;2022-12-07T02:02:20;0.70;;;0.70;;
6215;SDS011;3141;49.234;9.326;2022-12-07T02:03:11;3.40;;;1.50;;
6215;SDS011;3141;49.234;9.326;2022-12-07T02:04:00;0.90;;;0.90;;
6215;SDS011;3141;49.234;9.326;2022-12-07T02:04:43;0.57;;;0.57;;
6215;SDS011;3141;49.234;9.326;2022-12-07T02:05:26;1.10;;;1.10;;
6215;SDS011;3141;49.234;9.326;2022-12-07T02:06:09;0.60;;;0.60;;
6215;SDS011;3141;49.234;9.326;2022-12-07T02:06:53;1.10;;;1.10;;
6215;SDS011;3141;49.234;9.326;2022-12-07T02:07:37;1.67;;;0.77;;
6215;SDS011;3141;49.234;9.326;2022-12-07T02:08:20;1.48;;;1.42;;
6215;SDS011;3141;49.234;9.326;2022-12-07T02:09:03;0.57;;;0.57;;
6215;SDS011;3141;49.234;9.326;2022-12-07T02:09:46;0.40;;;0.40;;
6215;SDS011;3141;49.234;9.326;2022-12-07T02:10:29;4.40;;;0.83;;
6215;SDS011;3141;49.234;9.326;2022-12-07T02:11:13;1.38;;;0.90;;
6215;SDS011;3141;49.234;9.326;2022-12-07T02:11:55;0.70;;;0.70;;
6215;SDS011;3141;49.234;9.326;2022-12-07T02:12:38;1.30;;;1.27;;
6215;SDS011;3141;49.234;9.326;2022-12-07T02:13:24;0.60;;;0.60;;
6215;SDS011;3141;49.234;9.326;2022-12-07T02:14:10;0.40;;;0.40;;
6215;SDS011;3141;49.234;9.326;2022-12-07T02:14:52;0.80;;;0.80;;
6215;SDS011;3141;49.234;9.326;2022-12-07T02:17:58;0.40;;;0.40;;
6215;SDS011;3141;49.234;9.326;2022-12-07T02:24:42;0.30;;;0.30;;
6215;SDS011;3141;49.234;9.326;2022-12-07T02:27:47;0.73;;;0.73;;
6215;SDS011;3141;49.234;9.326;2022-12-07T02:29:56;0.55;;;0.55;;
6215;SDS011;3141;49.234;9.326;2022-12-07T02:30:40;0.82;;;0.82;;
6215;SDS011;3141;49.234;9.326;2022-12-07T02:31:26;1.23;;;1.15;;
6215;SDS011;3141;49.234;9.326;2022-12-07T02:32:16;0.40;;;0.40;;
6215;SDS011;3141;49.234;9.326;2022-12-07T02:33:24;0.68;;;0.68;;
6215;SDS011;3141;49.234;9.326;2022-12-07T02:34:19;0.55;;;0.55;;
6215;SDS011;3141;49.234;9.326;2022-12-07T02:36:04;1.25;;;0.60;;
6215;SDS011;3141;49.234;9.326;2022-12-07T02:36:54;0.40;;;0.40;;
6215;SDS011;3141;49.234;9.326;2022-12-07T02:39:50;0.77;;;0.70;;
6215;SDS011;3141;49.234;9.326;2022-12-07T02:42:15;0.40;;;0.40;;
6215;SDS011;3141;49.234;9.326;2022-12-07T02:43:06;1.50;;;1.40;;
6215;SDS011;3141;49.234;9.326;2022-12-07T02:43:54;0.68;;;0.68;;
6215;SDS011;3141;49.234;9.326;2022-12-07T02:44:39;0.63;;;0.60;;
6215;SDS011;3141;49.234;9.326;2022-12-07T02:45:22;1.67;;;0.70;;
6215;SDS011;3141;49.234;9.326;2022-12-07T02:46:16;1.00;;;0.90;;
6215;SDS011;3141;49.234;9.326;2022-12-07T02:47:05;1.02;;;1.02;;
6215;SDS011;3141;49.234;9.326;2022-12-07T02:47:51;0.20;;;0.20;;
6215;SDS011;3141;49.234;9.326;2022-12-07T02:48:38;1.40;;;1.30;;
6215;SDS011;3141;49.234;9.326;2022-12-07T02:49:22;0.32;;;0.32;;
6215;SDS011;3141;49.234;9.326;2022-12-07T02:50:06;0.75;;;0.75;;
6215;SDS011;3141;49.234;9.326;2022-12-07T02:50:50;0.70;;;0.70;;
6215;SDS011;3141;49.234;9.326;2022-12-07T02:51:34;0.60;;;0.60;;
6215;SDS011;3141;49.234;9.326;2022-12-07T02:52:22;0.90;;;0.88;;
6215;SDS011;3141;49.234;9.326;2022-12-07T02:53:05;2.07;;;1.90;;
6215;SDS011;3141;49.234;9.326;2022-12-07T02:53:47;1.07;;;1.00;;
6215;SDS011;3141;49.234;9.326;2022-12-07T02:54:29;1.57;;;0.70;;
6215;SDS011;3141;49.234;9.326;2022-12-07T02:55:12;1.40;;;1.30;;
6215;SDS011;3141;49.234;9.326;2022-12-07T02:55:56;0.73;;;0.70;;
6215;SDS011;3141;49.234;9.326;2022-12-07T02:57:28;0.43;;;0.43;;
6215;SDS011;3141;49.234;9.326;2022-12-07T03:00:52;0.40;;;0.40;;
6215;SDS011;3141;49.234;9.326;2022-12-07T03:03:25;0.90;;;0.77;;
6215;SDS011;3141;49.234;9.326;2022-12-07T03:04:32;0.60;;;0.60;;
6215;SDS011;3141;49.234;9.326;2022-12-07T03:06:50;0.40;;;0.40;;
6215;SDS011;3141;49.234;9.326;2022-12-07T03:07:41;0.70;;;0.70;;
6215;SDS011;3141;49.234;9.326;2022-12-07T03:08:42;0.47;;;0.47;;
6215;SDS011;3141;49.234;9.326;2022-12-07T03:09:38;1.25;;;0.50;;
6215;SDS011;3141;49.234;9.326;2022-12-07T03:10:41;0.70;;;0.70;;
6215;SDS011;3141;49.234;9.326;2022-12-07T03:11:41;0.70;;;0.70;;
6215;SDS011;3141;49.234;9.326;2022-12-07T03:12:36;4.97;;;1.85;;
6215;SDS011;3141;49.234;9.326;2022-12-07T03:14:21;1.00;;;1.00;;
6215;SDS011;3141;49.234;9.326;2022-12-07T03:15:13;1.10;;;1.10;;
6215;SDS011;3141;49.234;9.326;2022-12-07T03:16:12;0.50;;;0.50;;
6215;SDS011;3141;49.234;9.326;2022-12-07T03:17:06;0.77;;;0.77;;
6215;SDS011;3141;49.234;9.326;2022-12-07T03:17:54;0.60;;;0.60;;
6215;SDS011;3141;49.234;9.326;2022-12-07T03:18:51;0.52;;;0.52;;
6215;SDS011;3141;49.234;9.326;2022-12-07T03:19:36;0.45;;;0.45;;
6215;SDS011;3141;49.234;9.326;2022-12-07T03:20:21;0.90;;;0.80;;
6215;SDS011;3141;49.234;9.326;2022-12-07T03:21:08;0.40;;;0.40;;
6215;SDS011;3141;49.234;9.326;2022-12-07T03:21:57;1.13;;;1.13;;
6215;SDS011;3141;49.234;9.326;2022-12-07T03:22:43;0.30;;;0.30;;
6215;SDS011;3141;49.234;9.326;2022-12-07T03:23:28;1.08;;;1.05;;
6215;SDS011;3141;49.234;9.326;2022-12-07T03:24:15;1.38;;;1.38;;
6215;SDS011;3141;49.234;9.326;2022-12-07T03:25:03;0.85;;;0.57;;
6215;SDS011;3141;49.234;9.326;2022-12-07T03:25:49;0.80;;;0.75;;
6215;SDS011;3141;49.234;9.326;2022-12-07T03:26:39;0.98;;;0.93;;
6215;SDS011;3141;49.234;9.326;2022-12-07T03:27:40;0.82;;;0.82;;
6215;SDS011;3141;49.234;9.326;2022-12-07T03:28:27;0.60;;;0.60;;
6215;SDS011;3141;49.234;9.326;2022-12-07T03:29:22;1.33;;;1.27;;
6215;SDS011;3141;49.234;9.326;2022-12-07T03:30:10;1.17;;;1.17;;
6215;SDS011;3141;49.234;9.326;2022-12-07T03:30:59;1.15;;;1.13;;
6215;SDS011;3141;49.234;9.326;2022-12-07T03:31:47;1.27;;;1.17;;
6215;SDS011;3141;49.234;9.326;2022-12-07T03:32:40;0.98;;;0.80;;
6215;SDS011;3141;49.234;9.326;2022-12-07T03:33:45;1.55;;;1.45;;
6215;SDS011;3141;49.234;9.326;2022-12-07T03:34:39;0.70;;;0.63;;
6215;SDS011;3141;49.234;9.326;2022-12-07T03:36:46;0.40;;;0.40;;
6215;SDS011;3141;49.234;9.326;2022-12-07T03:37:34;0.95;;;0.90;;
6215;SDS011;3141;49.234;9.326;2022-12-07T03:38:31;1.58;;;1.10;;
6215;SDS011;3141;49.234;9.326;2022-12-07T03:40:44;1.48;;;1.38;;
6215;SDS011;3141;49.234;9.326;2022-12-07T03:41:30;0.57;;;0.57;;
6215;SDS011;3141;49.234;9.326;2022-12-07T03:42:15;0.98;;;0.98;;
6215;SDS011;3141;49.234;9.326;2022-12-07T03:42:58;1.77;;;1.67;;
6215;SDS011;3141;49.234;9.326;2022-12-07T03:43:43;1.52;;;1.05;;
6215;SDS011;3141;49.234;9.326;2022-12-07T03:44:26;0.83;;;0.83;;
6215;SDS011;3141;49.234;9.326;2022-12-07T03:45:08;0.70;;;0.70;;
6215;SDS011;3141;49.234;9.326;2022-12-07T03:48:18;1.58;;;1.48;;
6215;SDS011;3141;49.234;9.326;2022-12-07T03:50:38;0.50;;;0.50;;
6215;SDS011;3141;49.234;9.326;2022-12-07T03:51:36;1.15;;;1.15;;
6215;SDS011;3141;49.234;9.326;2022-12-07T03:52:27;2.28;;;0.95;;
6215;SDS011;3141;49.234;9.326;2022-12-07T03:53:20;0.70;;;0.70;;
6215;SDS011;3141;49.234;9.326;2022-12-07T03:54:17;1.50;;;1.33;;
6215;SDS011;3141;49.234;9.326;2022-12-07T03:55:06;0.95;;;0.95;;
6215;SDS011;3141;49.234;9.326;2022-12-07T03:55:53;0.60;;;0.60;;
6215;SDS011;3141;49.234;9.326;2022-12-07T03:56:36;0.80;;;0.80;;
6215;SDS011;3141;49.234;9.326;2022-12-07T03:57:20;0.50;;;0.50;;
6215;SDS011;3141;49.234;9.326;2022-12-07T03:58:09;1.75;;;0.95;;
6215;SDS011;3141;49.234;9.326;2022-12-07T03:58:54;0.73;;;0.73;;
6215;SDS011;3141;49.234;9.326;2022-12-07T03:59:37;1.93;;;1.27;;
6215;SDS011;3141;49.234;9.326;2022-12-07T04:00:20;0.50;;;0.50;;
6215;SDS011;3141;49.234;9.326;2022-12-07T04:01:03;6.53;;;0.60;;
6215;SDS011;3141;49.234;9.326;2022-12-07T04:01:47;0.87;;;0.87;;
6215;SDS011;3141;49.234;9.326;2022-12-07T04:02:35;4.45;;;1.67;;
6215;SDS011;3141;49.234;9.326;2022-12-07T04:03:18;2.10;;;1.47;;
6215;SDS011;3141;49.234;9.326;2022-12-07T04:04:00;1.53;;;0.93;;
6215;SDS011;3141;49.234;9.326;2022-12-07T04:04:42;1.37;;;1.27;;
6215;SDS011;3141;49.234;9.326;2022-12-07T04:05:25;0.93;;;0.77;;
6215;SDS011;3141;49.234;9.326;2022-12-07T04:06:08;1.17;;;1.17;;
6215;SDS011;3141;49.234;9.326;2022-12-07T04:06:50;1.37;;;1.27;;
6215;SDS011;3141;49.234;9.326;2022-12-07T04:07:33;0.60;;;0.60;;
6215;SDS011;3141;49.234;9.326;2022-12-07T04:08:15;1.23;;;1.23;;
6215;SDS011;3141;49.234;9.326;2022-12-07T04:08:57;2.03;;;1.93;;
6215;SDS011;3141;49.234;9.326;2022-12-07T04:09:40;1.00;;;1.00;;
6215;SDS011;3141;49.234;9.326;2022-12-07T04:10:22;1.80;;;1.10;;
6215;SDS011;3141;49.234;9.326;2022-12-07T04:11:04;1.30;;;1.20;;
6215;SDS011;3141;49.234;9.326;2022-12-07T04:11:47;1.03;;;1.03;;
6215;SDS011;3141;49.234;9.326;2022-12-07T04:12:29;0.77;;;0.77;;
6215;SDS011;3141;49.234;9.326;2022-12-07T04:13:12;1.47;;;1.47;;
6215;SDS011;3141;49.234;9.326;2022-12-07T04:13:54;1.03;;;1.03;;
6215;SDS011;3141;49.234;9.326;2022-12-07T04:14:55;1.30;;;1.25;;
6215;SDS011;3141;49.234;9.326;2022-12-07T04:15:37;0.50;;;0.50;;
6215;SDS011;3141;49.234;9.326;2022-12-07T04:16:20;0.67;;;0.67;;
6215;SDS011;3141;49.234;9.326;2022-12-07T04:17:02;0.70;;;0.70;;
6215;SDS011;3141;49.234;9.326;2022-12-07T04:17:44;1.70;;;1.60;;
6215;SDS011;3141;49.234;9.326;2022-12-07T04:18:27;2.03;;;1.90;;
6215;SDS011;3141;49.234;9.326;2022-12-07T04:19:09;0.43;;;0.43;;
6215;SDS011;3141;49.234;9.326;2022-12-07T04:19:51;0.97;;;0.97;;
6215;SDS011;3141;49.234;9.326;2022-12-07T04:20:34;4.80;;;2.40;;
6215;SDS011;3141;49.234;9.326;2022-12-07T04:21:16;1.70;;;1.23;;
6215;SDS011;3141;49.234;9.326;2022-12-07T04:21:59;0.80;;;0.80;;
6215;SDS011;3141;49.234;9.326;2022-12-07T04:22:43;1.30;;;1.20;;
6215;SDS011;3141;49.234;9.326;2022-12-07T04:23:26;1.37;;;1.37;;
6215;SDS011;3141;49.234;9.326;2022-12-07T04:24:08;1.80;;;1.63;;
6215;SDS011;3141;49.234;9.326;2022-12-07T04:24:50;1.50;;;1.27;;
6215;SDS011;3141;49.234;9.326;2022-12-07T04:25:33;1.63;;;1.53;;
6215;SDS011;3141;49.234;9.326;2022-12-07T04:26:15;1.43;;;1.23;;
6215;SDS011;3141;49.234;9.326;2022-12-07T04:26:57;1.30;;;1.10;;
6215;SDS011;3141;49.234;9.326;2022-12-07T04:27:40;1.57;;;1.30;;
6215;SDS011;3141;49.234;9.326;2022-12-07T04:28:22;1.40;;;1.40;;
6215;SDS011;3141;49.234;9.326;2022-12-07T04:29:04;1.30;;;1.20;;
6215;SDS011;3141;49.234;9.326;2022-12-07T04:29:47;1.40;;;1.37;;
6215;SDS011;3141;49.234;9.326;2022-12-07T04:30:29;1.00;;;1.00;;
6215;SDS011;3141;49.234;9.326;2022-12-07T04:31:11;1.73;;;1.57;;
6215;SDS011;3141;49.234;9.326;2022-12-07T04:31:54;2.40;;;1.17;;
6215;SDS011;3141;49.234;9.326;2022-12-07T04:32:36;1.20;;;1.17;;
6215;SDS011;3141;49.234;9.326;2022-12-07T04:33:19;1.67;;;1.57;;
6215;SDS011;3141;49.234;9.326;2022-12-07T04:34:01;1.30;;;1.30;;
6215;SDS011;3141;49.234;9.326;2022-12-07T04:34:44;0.57;;;0.57;;
6215;SDS011;3141;49.234;9.326;2022-12-07T04:35:27;2.33;;;1.67;;
6215;SDS011;3141;49.234;9.326;2022-12-07T04:36:09;1.00;;;0.97;;
6215;SDS011;3141;49.234;9.326;2022-12-07T04:36:51;1.73;;;1.63;;
6215;SDS011;3141;49.234;9.326;2022-12-07T04:37:34;1.13;;;0.77;;
6215;SDS011;3141;49.234;9.326;2022-12-07T04:38:16;1.10;;;1.10;;
6215;SDS011;3141;49.234;9.326;2022-12-07T04:38:58;3.07;;;1.47;;
6215;SDS011;3141;49.234;9.326;2022-12-07T04:39:41;2.67;;;1.77;;
6215;SDS011;3141;49.234;9.326;2022-12-07T04:40:23;1.10;;;1.00;;
6215;SDS011;3141;49.234;9.326;2022-12-07T04:41:06;1.10;;;1.00;;
6215;SDS011;3141;49.234;9.326;2022-12-07T04:41:49;0.88;;;0.88;;
6215;SDS011;3141;49.234;9.326;2022-12-07T04:42:32;0.80;;;0.80;;
6215;SDS011;3141;49.234;9.326;2022-12-07T04:43:15;1.47;;;1.37;;
6215;SDS011;3141;49.234;9.326;2022-12-07T04:43:58;1.60;;;1.50;;
6215;SDS011;3141;49.234;9.326;2022-12-07T04:44:45;1.70;;;0.80;;
6215;SDS011;3141;49.234;9.326;2022-12-07T04:45:27;0.97;;;0.97;;
6215;SDS011;3141;49.234;9.326;2022-12-07T04:46:10;1.60;;;1.50;;
6215;SDS011;3141;49.234;9.326;2022-12-07T04:46:52;1.70;;;0.90;;
6215;SDS011;3141;49.234;9.326;2022-12-07T04:47:35;0.70;;;0.70;;
6215;SDS011;3141;49.234;9.326;2022-12-07T04:48:18;0.93;;;0.93;;
6215;SDS011;3141;49.234;9.326;2022-12-07T04:49:00;0.77;;;0.77;;
6215;SDS011;3141;49.234;9.326;2022-12-07T04:49:42;0.57;;;0.57;;
6215;SDS011;3141;49.234;9.326;2022-12-07T04:50:25;0.80;;;0.80;;
6215;SDS011;3141;49.234;9.326;2022-12-07T04:51:07;1.57;;;1.50;;
6215;SDS011;3141;49.234;9.326;2022-12-07T04:51:49;5.23;;;1.33;;
6215;SDS011;3141;49.234;9.326;2022-12-07T04:52:32;0.93;;;0.93;;
6215;SDS011;3141;49.234;9.326;2022-12-07T04:53:15;1.07;;;1.07;;
6215;SDS011;3141;49.234;9.326;2022-12-07T04:53:57;1.70;;;1.33;;
6215;SDS011;3141;49.234;9.326;2022-12-07T04:54:40;0.50;;;0.50;;
6215;SDS011;3141;49.234;9.326;2022-12-07T04:55:22;1.33;;;1.27;;
6215;SDS011;3141;49.234;9.326;2022-12-07T04:56:04;0.80;;;0.80;;
6215;SDS011;3141;49.234;9.326;2022-12-07T04:56:47;0.70;;;0.70;;
6215;SDS011;3141;49.234;9.326;2022-12-07T04:57:29;1.43;;;0.80;;
6215;SDS011;3141;49.234;9.326;2022-12-07T04:58:12;3.43;;;2.40;;
6215;SDS011;3141;49.234;9.326;2022-12-07T04:58:55;0.90;;;0.90;;
6215;SDS011;3141;49.234;9.326;2022-12-07T04:59:37;1.17;;;1.00;;
6215;SDS011;3141;49.234;9.326;2022-12-07T05:00:20;0.90;;;0.90;;
6215;SDS011;3141;49.234;9.326;2022-12-07T05:01:02;0.93;;;0.93;;
6215;SDS011;3141;49.234;9.326;2022-12-07T05:01:44;0.63;;;0.63;;
6215;SDS011;3141;49.234;9.326;2022-12-07T05:02:27;1.60;;;1.30;;
6215;SDS011;3141;49.234;9.326;2022-12-07T05:03:09;0.70;;;0.70;;
6215;SDS011;3141;49.234;9.326;2022-12-07T05:03:51;1.67;;;1.57;;
6215;SDS011;3141;49.234;9.326;2022-12-07T05:04:34;1.80;;;1.53;;
6215;SDS011;3141;49.234;9.326;2022-12-07T05:05:16;0.70;;;0.70;;
6215;SDS011;3141;49.234;9.326;2022-12-07T05:05:59;0.90;;;0.90;;
6215;SDS011;3141;49.234;9.326;2022-12-07T05:06:41;1.20;;;1.10;;
6215;SDS011;3141;49.234;9.326;2022-12-07T05:07:24;1.00;;;1.00;;
6215;SDS011;3141;49.234;9.326;2022-12-07T05:08:06;1.40;;;1.40;;
6215;SDS011;3141;49.234;9.326;2022-12-07T05:08:48;1.10;;;1.10;;
6215;SDS011;3141;49.234;9.326;2022-12-07T05:09:31;1.03;;;1.03;;
6215;SDS011;3141;49.234;9.326;2022-12-07T05:10:13;0.40;;;0.40;;
6215;SDS011;3141;49.234;9.326;2022-12-07T05:10:55;1.60;;;1.40;;